sensor_id;sensor_type;location;lat;lon;timestamp;P1;durP1;ratioP1;P2;durP2;ratioP2
49153;SDS011;49455;52.252;9.124;2023-03-21T00:02:11;36.47;;;24.25;;
49153;SDS011;49455;52.252;9.124;2023-03-21T00:07:12;41.60;;;23.13;;
49153;SDS011;49455;52.252;9.124;2023-03-21T00:12:12;46.22;;;23.45;;
49153;SDS011;49455;52.252;9.124;2023-03-21T00:17:12;44.50;;;23.65;;
49153;SDS011;49455;52.252;9.124;2023-03-21T00:22:13;47.05;;;24.08;;
49153;SDS011;49455;52.252;9.124;2023-03-21T00:27:13;43.77;;;23.27;;
49153;SDS011;49455;52.252;9.124;2023-03-21T00:32:14;41.95;;;22.88;;
49153;SDS011;49455;52.252;9.124;2023-03-21T00:37:15;48.28;;;22.50;;
49153;SDS011;49455;52.252;9.124;2023-03-21T00:42:16;37.58;;;23.08;;
49153;SDS011;49455;52.252;9.124;2023-03-21T00:47:17;43.67;;;23.17;;
49153;SDS011;49455;52.252;9.124;2023-03-21T00:52:18;37.97;;;22.05;;
49153;SDS011;49455;52.252;9.124;2023-03-21T00:57:18;41.17;;;22.30;;
49153;SDS011;49455;52.252;9.124;2023-03-21T01:02:18;41.85;;;24.35;;
49153;SDS011;49455;52.252;9.124;2023-03-21T01:07:19;47.03;;;23.98;;
49153;SDS011;49455;52.252;9.124;2023-03-21T01:12:20;47.22;;;25.20;;
49153;SDS011;49455;52.252;9.124;2023-03-21T01:17:21;44.13;;;24.90;;
49153;SDS011;49455;52.252;9.124;2023-03-21T01:22:21;52.53;;;25.73;;
49153;SDS011;49455;52.252;9.124;2023-03-21T01:27:21;49.23;;;25.47;;
49153;SDS011;49455;52.252;9.124;2023-03-21T01:32:22;42.80;;;24.20;;
49153;SDS011;49455;52.252;9.124;2023-03-21T01:37:23;47.35;;;25.17;;
49153;SDS011;49455;52.252;9.124;2023-03-21T01:42:24;47.07;;;24.93;;
49153;SDS011;49455;52.252;9.124;2023-03-21T01:47:24;43.88;;;24.85;;
49153;SDS011;49455;52.252;9.124;2023-03-21T01:52:39;53.03;;;25.10;;
49153;SDS011;49455;52.252;9.124;2023-03-21T01:57:50;42.80;;;22.73;;
49153;SDS011;49455;52.252;9.124;2023-03-21T02:02:55;49.00;;;24.65;;
49153;SDS011;49455;52.252;9.124;2023-03-21T02:08:17;44.13;;;24.65;;
49153;SDS011;49455;52.252;9.124;2023-03-21T02:13:18;42.40;;;24.90;;
49153;SDS011;49455;52.252;9.124;2023-03-21T02:18:21;51.60;;;27.08;;
49153;SDS011;49455;52.252;9.124;2023-03-21T02:28:41;46.35;;;28.80;;
49153;SDS011;49455;52.252;9.124;2023-03-21T02:40:08;58.28;;;33.55;;
49153;SDS011;49455;52.252;9.124;2023-03-21T02:45:16;58.40;;;30.77;;
49153;SDS011;49455;52.252;9.124;2023-03-21T02:50:27;58.55;;;31.65;;
49153;SDS011;49455;52.252;9.124;2023-03-21T02:55:34;66.78;;;33.35;;
49153;SDS011;49455;52.252;9.124;2023-03-21T03:00:38;55.47;;;32.28;;
49153;SDS011;49455;52.252;9.124;2023-03-21T03:05:41;49.35;;;29.17;;
49153;SDS011;49455;52.252;9.124;2023-03-21T03:10:47;67.47;;;35.10;;
49153;SDS011;49455;52.252;9.124;2023-03-21T03:22:11;63.00;;;32.70;;
49153;SDS011;49455;52.252;9.124;2023-03-21T03:27:48;62.63;;;31.53;;
49153;SDS011;49455;52.252;9.124;2023-03-21T03:32:49;58.15;;;34.10;;
49153;SDS011;49455;52.252;9.124;2023-03-21T03:42:59;65.25;;;36.15;;
49153;SDS011;49455;52.252;9.124;2023-03-21T03:53:25;66.32;;;36.70;;
49153;SDS011;49455;52.252;9.124;2023-03-21T03:58:30;61.35;;;35.83;;
49153;SDS011;49455;52.252;9.124;2023-03-21T04:03:31;61.38;;;35.00;;
49153;SDS011;49455;52.252;9.124;2023-03-21T04:08:33;68.28;;;38.78;;
49153;SDS011;49455;52.252;9.124;2023-03-21T04:13:33;65.07;;;36.13;;
49153;SDS011;49455;52.252;9.124;2023-03-21T04:18:38;72.50;;;40.80;;
49153;SDS011;49455;52.252;9.124;2023-03-21T04:23:41;69.45;;;37.42;;
49153;SDS011;49455;52.252;9.124;2023-03-21T04:28:42;69.17;;;37.60;;
49153;SDS011;49455;52.252;9.124;2023-03-21T04:34:15;61.22;;;36.10;;
49153;SDS011;49455;52.252;9.124;2023-03-21T04:39:21;66.40;;;36.85;;
49153;SDS011;49455;52.252;9.124;2023-03-21T04:44:23;63.20;;;37.58;;
49153;SDS011;49455;52.252;9.124;2023-03-21T04:49:24;68.10;;;38.23;;
49153;SDS011;49455;52.252;9.124;2023-03-21T04:54:25;61.15;;;35.58;;
49153;SDS011;49455;52.252;9.124;2023-03-21T04:59:25;60.00;;;33.92;;
49153;SDS011;49455;52.252;9.124;2023-03-21T05:04:26;55.25;;;32.35;;
49153;SDS011;49455;52.252;9.124;2023-03-21T05:09:27;59.55;;;32.55;;
49153;SDS011;49455;52.252;9.124;2023-03-21T05:14:28;63.72;;;33.45;;
49153;SDS011;49455;52.252;9.124;2023-03-21T05:19:29;53.50;;;30.10;;
49153;SDS011;49455;52.252;9.124;2023-03-21T05:24:30;53.15;;;29.52;;
49153;SDS011;49455;52.252;9.124;2023-03-21T05:29:32;60.13;;;29.63;;
49153;SDS011;49455;52.252;9.124;2023-03-21T05:34:38;48.40;;;26.13;;
49153;SDS011;49455;52.252;9.124;2023-03-21T05:39:39;55.85;;;26.77;;
49153;SDS011;49455;52.252;9.124;2023-03-21T05:44:46;48.58;;;25.48;;
49153;SDS011;49455;52.252;9.124;2023-03-21T05:49:48;51.33;;;25.13;;
49153;SDS011;49455;52.252;9.124;2023-03-21T05:54:49;57.28;;;27.10;;
49153;SDS011;49455;52.252;9.124;2023-03-21T05:59:50;52.50;;;26.25;;
49153;SDS011;49455;52.252;9.124;2023-03-21T06:04:52;57.80;;;26.80;;
49153;SDS011;49455;52.252;9.124;2023-03-21T06:09:54;52.30;;;25.60;;
49153;SDS011;49455;52.252;9.124;2023-03-21T06:14:55;49.90;;;24.92;;
49153;SDS011;49455;52.252;9.124;2023-03-21T06:20:03;53.15;;;24.38;;
49153;SDS011;49455;52.252;9.124;2023-03-21T06:25:10;53.67;;;24.63;;
49153;SDS011;49455;52.252;9.124;2023-03-21T06:30:11;55.25;;;24.95;;
49153;SDS011;49455;52.252;9.124;2023-03-21T06:35:20;48.90;;;24.90;;
49153;SDS011;49455;52.252;9.124;2023-03-21T06:40:23;46.50;;;25.13;;
49153;SDS011;49455;52.252;9.124;2023-03-21T06:45:25;44.30;;;23.53;;
49153;SDS011;49455;52.252;9.124;2023-03-21T06:50:26;46.38;;;23.25;;
49153;SDS011;49455;52.252;9.124;2023-03-21T06:55:28;56.28;;;24.80;;
49153;SDS011;49455;52.252;9.124;2023-03-21T07:00:31;51.42;;;24.15;;
49153;SDS011;49455;52.252;9.124;2023-03-21T07:05:33;47.25;;;23.58;;
49153;SDS011;49455;52.252;9.124;2023-03-21T07:10:37;47.85;;;22.35;;
49153;SDS011;49455;52.252;9.124;2023-03-21T07:15:41;48.92;;;23.67;;
49153;SDS011;49455;52.252;9.124;2023-03-21T07:20:44;47.90;;;22.80;;
49153;SDS011;49455;52.252;9.124;2023-03-21T07:25:46;43.65;;;22.80;;
49153;SDS011;49455;52.252;9.124;2023-03-21T07:30:52;43.33;;;22.13;;
49153;SDS011;49455;52.252;9.124;2023-03-21T07:35:57;50.88;;;23.05;;
49153;SDS011;49455;52.252;9.124;2023-03-21T07:40:58;44.50;;;20.73;;
49153;SDS011;49455;52.252;9.124;2023-03-21T07:45:59;40.58;;;20.48;;
49153;SDS011;49455;52.252;9.124;2023-03-21T07:51:00;43.53;;;21.20;;
49153;SDS011;49455;52.252;9.124;2023-03-21T07:56:01;40.72;;;20.77;;
49153;SDS011;49455;52.252;9.124;2023-03-21T08:01:01;42.38;;;20.80;;
49153;SDS011;49455;52.252;9.124;2023-03-21T08:06:02;41.95;;;20.25;;
49153;SDS011;49455;52.252;9.124;2023-03-21T08:11:02;50.88;;;21.45;;
49153;SDS011;49455;52.252;9.124;2023-03-21T08:16:03;40.90;;;20.67;;
49153;SDS011;49455;52.252;9.124;2023-03-21T08:21:04;32.97;;;19.58;;
49153;SDS011;49455;52.252;9.124;2023-03-21T08:26:04;38.55;;;19.88;;
49153;SDS011;49455;52.252;9.124;2023-03-21T08:31:06;40.15;;;19.10;;
49153;SDS011;49455;52.252;9.124;2023-03-21T08:36:09;38.38;;;18.67;;
49153;SDS011;49455;52.252;9.124;2023-03-21T08:41:10;40.42;;;19.40;;
49153;SDS011;49455;52.252;9.124;2023-03-21T08:46:10;36.22;;;18.67;;
49153;SDS011;49455;52.252;9.124;2023-03-21T08:51:11;35.38;;;18.70;;
49153;SDS011;49455;52.252;9.124;2023-03-21T08:56:11;36.33;;;19.08;;
49153;SDS011;49455;52.252;9.124;2023-03-21T09:01:12;37.50;;;19.67;;
49153;SDS011;49455;52.252;9.124;2023-03-21T09:06:12;41.22;;;19.38;;
49153;SDS011;49455;52.252;9.124;2023-03-21T09:11:12;42.90;;;20.08;;
49153;SDS011;49455;52.252;9.124;2023-03-21T09:16:13;43.33;;;18.13;;
49153;SDS011;49455;52.252;9.124;2023-03-21T09:21:14;34.63;;;18.33;;
49153;SDS011;49455;52.252;9.124;2023-03-21T09:26:15;41.90;;;18.73;;
49153;SDS011;49455;52.252;9.124;2023-03-21T09:31:16;33.72;;;17.13;;
49153;SDS011;49455;52.252;9.124;2023-03-21T09:36:17;31.77;;;15.00;;
49153;SDS011;49455;52.252;9.124;2023-03-21T09:46:44;35.22;;;15.55;;
49153;SDS011;49455;52.252;9.124;2023-03-21T09:51:54;30.77;;;14.77;;
49153;SDS011;49455;52.252;9.124;2023-03-21T09:56:55;27.63;;;13.82;;
49153;SDS011;49455;52.252;9.124;2023-03-21T10:01:58;26.83;;;14.70;;
49153;SDS011;49455;52.252;9.124;2023-03-21T10:07:00;25.77;;;15.00;;
49153;SDS011;49455;52.252;9.124;2023-03-21T10:12:05;30.20;;;15.75;;
49153;SDS011;49455;52.252;9.124;2023-03-21T10:17:25;35.17;;;15.07;;
49153;SDS011;49455;52.252;9.124;2023-03-21T10:22:26;29.40;;;15.85;;
49153;SDS011;49455;52.252;9.124;2023-03-21T10:27:27;29.27;;;16.85;;
49153;SDS011;49455;52.252;9.124;2023-03-21T10:32:27;33.20;;;16.58;;
49153;SDS011;49455;52.252;9.124;2023-03-21T10:37:28;33.95;;;16.80;;
49153;SDS011;49455;52.252;9.124;2023-03-21T10:42:29;29.30;;;18.00;;
49153;SDS011;49455;52.252;9.124;2023-03-21T10:47:30;35.33;;;18.77;;
49153;SDS011;49455;52.252;9.124;2023-03-21T10:52:33;33.63;;;17.40;;
49153;SDS011;49455;52.252;9.124;2023-03-21T10:57:36;35.67;;;18.50;;
49153;SDS011;49455;52.252;9.124;2023-03-21T11:02:37;30.50;;;16.92;;
49153;SDS011;49455;52.252;9.124;2023-03-21T11:07:37;31.15;;;17.27;;
49153;SDS011;49455;52.252;9.124;2023-03-21T11:12:39;34.63;;;16.45;;
49153;SDS011;49455;52.252;9.124;2023-03-21T11:17:45;27.90;;;15.48;;
49153;SDS011;49455;52.252;9.124;2023-03-21T11:22:46;31.08;;;17.27;;
49153;SDS011;49455;52.252;9.124;2023-03-21T11:27:48;28.73;;;16.52;;
49153;SDS011;49455;52.252;9.124;2023-03-21T11:32:59;30.42;;;16.90;;
49153;SDS011;49455;52.252;9.124;2023-03-21T11:38:01;30.13;;;16.75;;
49153;SDS011;49455;52.252;9.124;2023-03-21T11:43:03;31.60;;;16.08;;
49153;SDS011;49455;52.252;9.124;2023-03-21T11:48:11;29.50;;;16.13;;
49153;SDS011;49455;52.252;9.124;2023-03-21T12:09:25;31.13;;;16.85;;
49153;SDS011;49455;52.252;9.124;2023-03-21T12:25:25;28.95;;;15.02;;
49153;SDS011;49455;52.252;9.124;2023-03-21T12:30:30;23.33;;;14.80;;
49153;SDS011;49455;52.252;9.124;2023-03-21T12:35:51;30.25;;;14.35;;
49153;SDS011;49455;52.252;9.124;2023-03-21T12:46:23;24.17;;;13.55;;
49153;SDS011;49455;52.252;9.124;2023-03-21T12:51:46;24.65;;;12.30;;
49153;SDS011;49455;52.252;9.124;2023-03-21T12:56:52;21.33;;;12.00;;
49153;SDS011;49455;52.252;9.124;2023-03-21T13:01:59;23.15;;;12.73;;
49153;SDS011;49455;52.252;9.124;2023-03-21T13:07:14;21.38;;;12.48;;
49153;SDS011;49455;52.252;9.124;2023-03-21T13:12:23;28.33;;;13.23;;
49153;SDS011;49455;52.252;9.124;2023-03-21T13:17:34;24.40;;;13.52;;
49153;SDS011;49455;52.252;9.124;2023-03-21T13:22:43;23.63;;;12.60;;
49153;SDS011;49455;52.252;9.124;2023-03-21T13:27:49;20.10;;;12.03;;
49153;SDS011;49455;52.252;9.124;2023-03-21T13:33:02;22.58;;;12.20;;
49153;SDS011;49455;52.252;9.124;2023-03-21T13:38:09;23.23;;;11.55;;
49153;SDS011;49455;52.252;9.124;2023-03-21T13:59:02;21.00;;;11.73;;
49153;SDS011;49455;52.252;9.124;2023-03-21T14:09:32;19.85;;;10.85;;
49153;SDS011;49455;52.252;9.124;2023-03-21T14:14:39;24.65;;;13.98;;
49153;SDS011;49455;52.252;9.124;2023-03-21T14:19:44;22.90;;;11.93;;
49153;SDS011;49455;52.252;9.124;2023-03-21T14:24:48;19.52;;;12.02;;
49153;SDS011;49455;52.252;9.124;2023-03-21T14:29:54;24.92;;;13.35;;
49153;SDS011;49455;52.252;9.124;2023-03-21T14:34:55;18.88;;;10.60;;
49153;SDS011;49455;52.252;9.124;2023-03-21T14:40:00;19.20;;;11.60;;
49153;SDS011;49455;52.252;9.124;2023-03-21T14:45:14;16.63;;;10.30;;
49153;SDS011;49455;52.252;9.124;2023-03-21T14:50:26;19.98;;;10.88;;
49153;SDS011;49455;52.252;9.124;2023-03-21T14:55:31;16.38;;;9.20;;
49153;SDS011;49455;52.252;9.124;2023-03-21T15:00:32;23.70;;;10.20;;
49153;SDS011;49455;52.252;9.124;2023-03-21T15:05:35;15.13;;;8.65;;
49153;SDS011;49455;52.252;9.124;2023-03-21T15:10:37;15.52;;;8.00;;
49153;SDS011;49455;52.252;9.124;2023-03-21T15:15:37;16.47;;;7.53;;
49153;SDS011;49455;52.252;9.124;2023-03-21T15:20:38;18.20;;;7.00;;
49153;SDS011;49455;52.252;9.124;2023-03-21T15:25:39;15.25;;;7.10;;
49153;SDS011;49455;52.252;9.124;2023-03-21T15:30:45;10.50;;;6.43;;
49153;SDS011;49455;52.252;9.124;2023-03-21T15:35:52;14.23;;;6.70;;
49153;SDS011;49455;52.252;9.124;2023-03-21T15:41:14;12.23;;;6.85;;
49153;SDS011;49455;52.252;9.124;2023-03-21T15:52:26;15.43;;;8.50;;
49153;SDS011;49455;52.252;9.124;2023-03-21T15:57:21;13.98;;;8.18;;
49153;SDS011;49455;52.252;9.124;2023-03-21T16:07:31;13.90;;;7.63;;
49153;SDS011;49455;52.252;9.124;2023-03-21T16:12:36;14.27;;;7.38;;
49153;SDS011;49455;52.252;9.124;2023-03-21T16:17:37;15.07;;;7.53;;
49153;SDS011;49455;52.252;9.124;2023-03-21T16:22:37;11.88;;;7.40;;
49153;SDS011;49455;52.252;9.124;2023-03-21T16:27:37;13.23;;;7.25;;
49153;SDS011;49455;52.252;9.124;2023-03-21T16:32:38;11.55;;;7.90;;
49153;SDS011;49455;52.252;9.124;2023-03-21T16:37:39;11.65;;;7.13;;
49153;SDS011;49455;52.252;9.124;2023-03-21T16:42:40;10.68;;;7.28;;
49153;SDS011;49455;52.252;9.124;2023-03-21T16:47:40;12.05;;;6.45;;
49153;SDS011;49455;52.252;9.124;2023-03-21T16:52:40;15.70;;;7.15;;
49153;SDS011;49455;52.252;9.124;2023-03-21T16:57:41;11.43;;;6.45;;
49153;SDS011;49455;52.252;9.124;2023-03-21T17:02:42;9.05;;;5.70;;
49153;SDS011;49455;52.252;9.124;2023-03-21T17:07:42;9.30;;;5.30;;
49153;SDS011;49455;52.252;9.124;2023-03-21T17:12:43;9.35;;;5.10;;
49153;SDS011;49455;52.252;9.124;2023-03-21T17:17:44;8.52;;;4.80;;
49153;SDS011;49455;52.252;9.124;2023-03-21T17:22:45;7.73;;;5.03;;
49153;SDS011;49455;52.252;9.124;2023-03-21T17:27:46;7.63;;;4.95;;
49153;SDS011;49455;52.252;9.124;2023-03-21T17:32:47;6.25;;;4.05;;
49153;SDS011;49455;52.252;9.124;2023-03-21T17:37:48;7.32;;;4.55;;
49153;SDS011;49455;52.252;9.124;2023-03-21T17:42:49;6.35;;;3.50;;
49153;SDS011;49455;52.252;9.124;2023-03-21T17:47:50;5.97;;;3.20;;
49153;SDS011;49455;52.252;9.124;2023-03-21T17:52:51;8.95;;;4.20;;
49153;SDS011;49455;52.252;9.124;2023-03-21T17:57:51;4.40;;;3.30;;
49153;SDS011;49455;52.252;9.124;2023-03-21T18:02:52;5.55;;;3.30;;
49153;SDS011;49455;52.252;9.124;2023-03-21T18:07:52;5.65;;;2.95;;
49153;SDS011;49455;52.252;9.124;2023-03-21T18:12:53;3.85;;;3.22;;
49153;SDS011;49455;52.252;9.124;2023-03-21T18:17:53;6.65;;;3.15;;
49153;SDS011;49455;52.252;9.124;2023-03-21T18:22:54;6.32;;;3.10;;
49153;SDS011;49455;52.252;9.124;2023-03-21T18:27:54;6.03;;;3.45;;
49153;SDS011;49455;52.252;9.124;2023-03-21T18:32:55;6.72;;;3.30;;
49153;SDS011;49455;52.252;9.124;2023-03-21T18:37:55;7.35;;;3.70;;
49153;SDS011;49455;52.252;9.124;2023-03-21T18:42:56;5.63;;;3.30;;
49153;SDS011;49455;52.252;9.124;2023-03-21T18:47:56;4.30;;;2.95;;
49153;SDS011;49455;52.252;9.124;2023-03-21T18:52:57;5.28;;;3.17;;
49153;SDS011;49455;52.252;9.124;2023-03-21T18:57:57;6.10;;;3.90;;
49153;SDS011;49455;52.252;9.124;2023-03-21T19:02:57;6.20;;;3.45;;
49153;SDS011;49455;52.252;9.124;2023-03-21T19:07:58;5.38;;;3.85;;
49153;SDS011;49455;52.252;9.124;2023-03-21T19:12:58;7.78;;;3.97;;
49153;SDS011;49455;52.252;9.124;2023-03-21T19:17:59;9.50;;;3.88;;
49153;SDS011;49455;52.252;9.124;2023-03-21T19:22:59;5.60;;;3.80;;
49153;SDS011;49455;52.252;9.124;2023-03-21T19:28:00;8.35;;;4.47;;
49153;SDS011;49455;52.252;9.124;2023-03-21T19:33:00;6.78;;;4.15;;
49153;SDS011;49455;52.252;9.124;2023-03-21T19:38:01;9.88;;;4.30;;
49153;SDS011;49455;52.252;9.124;2023-03-21T19:43:01;8.02;;;4.72;;
49153;SDS011;49455;52.252;9.124;2023-03-21T19:48:01;9.68;;;4.75;;
49153;SDS011;49455;52.252;9.124;2023-03-21T19:53:02;8.48;;;4.57;;
49153;SDS011;49455;52.252;9.124;2023-03-21T19:58:02;9.02;;;5.05;;
49153;SDS011;49455;52.252;9.124;2023-03-21T20:03:03;7.25;;;4.43;;
49153;SDS011;49455;52.252;9.124;2023-03-21T20:08:03;6.75;;;5.03;;
49153;SDS011;49455;52.252;9.124;2023-03-21T20:13:04;9.60;;;5.10;;
49153;SDS011;49455;52.252;9.124;2023-03-21T20:18:05;9.93;;;5.03;;
49153;SDS011;49455;52.252;9.124;2023-03-21T20:23:05;6.93;;;4.75;;
49153;SDS011;49455;52.252;9.124;2023-03-21T20:28:06;10.18;;;5.25;;
49153;SDS011;49455;52.252;9.124;2023-03-21T20:33:06;9.57;;;6.00;;
49153;SDS011;49455;52.252;9.124;2023-03-21T20:38:07;9.27;;;6.00;;
49153;SDS011;49455;52.252;9.124;2023-03-21T20:43:07;6.65;;;5.28;;
49153;SDS011;49455;52.252;9.124;2023-03-21T20:48:07;9.38;;;6.03;;
49153;SDS011;49455;52.252;9.124;2023-03-21T20:53:08;9.48;;;5.82;;
49153;SDS011;49455;52.252;9.124;2023-03-21T20:58:08;11.95;;;6.05;;
49153;SDS011;49455;52.252;9.124;2023-03-21T21:03:09;8.80;;;5.70;;
49153;SDS011;49455;52.252;9.124;2023-03-21T21:08:09;10.32;;;5.93;;
49153;SDS011;49455;52.252;9.124;2023-03-21T21:13:10;9.38;;;6.10;;
49153;SDS011;49455;52.252;9.124;2023-03-21T21:18:10;10.65;;;5.90;;
49153;SDS011;49455;52.252;9.124;2023-03-21T21:23:11;12.63;;;6.57;;
49153;SDS011;49455;52.252;9.124;2023-03-21T21:28:12;9.73;;;6.50;;
49153;SDS011;49455;52.252;9.124;2023-03-21T21:33:12;11.43;;;6.65;;
49153;SDS011;49455;52.252;9.124;2023-03-21T21:38:14;6.77;;;5.80;;
49153;SDS011;49455;52.252;9.124;2023-03-21T21:43:18;8.95;;;6.28;;
49153;SDS011;49455;52.252;9.124;2023-03-21T21:48:19;13.95;;;6.13;;
49153;SDS011;49455;52.252;9.124;2023-03-21T21:53:20;11.40;;;6.35;;
49153;SDS011;49455;52.252;9.124;2023-03-21T21:58:20;10.45;;;7.05;;
49153;SDS011;49455;52.252;9.124;2023-03-21T22:03:21;9.05;;;6.47;;
49153;SDS011;49455;52.252;9.124;2023-03-21T22:08:21;9.60;;;6.10;;
49153;SDS011;49455;52.252;9.124;2023-03-21T22:13:22;11.73;;;6.80;;
49153;SDS011;49455;52.252;9.124;2023-03-21T22:18:22;8.63;;;6.93;;
49153;SDS011;49455;52.252;9.124;2023-03-21T22:23:23;10.55;;;6.75;;
49153;SDS011;49455;52.252;9.124;2023-03-21T22:28:23;9.88;;;7.03;;
49153;SDS011;49455;52.252;9.124;2023-03-21T22:33:24;10.95;;;7.18;;
49153;SDS011;49455;52.252;9.124;2023-03-21T22:38:24;10.90;;;6.20;;
49153;SDS011;49455;52.252;9.124;2023-03-21T22:43:25;8.98;;;6.63;;
49153;SDS011;49455;52.252;9.124;2023-03-21T22:48:25;14.30;;;7.93;;
49153;SDS011;49455;52.252;9.124;2023-03-21T22:53:26;13.73;;;7.97;;
49153;SDS011;49455;52.252;9.124;2023-03-21T22:58:27;10.35;;;7.05;;
49153;SDS011;49455;52.252;9.124;2023-03-21T23:03:27;9.65;;;6.75;;
49153;SDS011;49455;52.252;9.124;2023-03-21T23:08:28;10.32;;;7.40;;
49153;SDS011;49455;52.252;9.124;2023-03-21T23:13:29;13.32;;;8.02;;
49153;SDS011;49455;52.252;9.124;2023-03-21T23:18:29;11.65;;;7.22;;
49153;SDS011;49455;52.252;9.124;2023-03-21T23:23:30;10.55;;;7.22;;
49153;SDS011;49455;52.252;9.124;2023-03-21T23:28:31;11.45;;;7.82;;
49153;SDS011;49455;52.252;9.124;2023-03-21T23:33:32;13.32;;;7.97;;
49153;SDS011;49455;52.252;9.124;2023-03-21T23:38:32;11.57;;;7.82;;
49153;SDS011;49455;52.252;9.124;2023-03-21T23:43:33;12.43;;;7.47;;
49153;SDS011;49455;52.252;9.124;2023-03-21T23:48:33;10.63;;;7.47;;
49153;SDS011;49455;52.252;9.124;2023-03-21T23:53:34;13.52;;;8.45;;
49153;SDS011;49455;52.252;9.124;2023-03-21T23:58:34;11.77;;;8.00;;
